Mineola, TX

12:07 AM CDT on May 26, 2015 (GMT -0500)
Mineola | | Change Station
CLOSE
Current Station
Airport
Location: Mineola,
Elevation: 433 ft
Nearby Weather Stations

Elev 433 ft 32.74 °N, 95.49 °W | Updated 12 minutes ago

Mostly Cloudy
Mostly Cloudy
64 °F
Feels Like 64 °F
N
0
Wind Variable Wind from North

Today
High -- | Low -- °F
--% Chance of Precip.
Yesterday
High -- | Low -- °F
Precip. -- in
6:17 AM 8:21 PM
First Quarter, 55% visible
Pressure 29.91 in
Visibility 5.0 miles
Clouds Few 800 ft
Dew Point 64 °F
Humidity 100%
Rainfall 1.04 in
Snow Depth Not available.
UV 0 out of 12
Pollen 4.70 out of 12
Air Quality Not available.
Flu Activity Sporadic
METAR KJDD 260455Z AUTO 00000KT 5SM BR FEW008 18/18 A2991 RMK AO2

More Conditions Fewer Conditions

Pressure 29.91 in
Visibility 5.0 miles
Clouds Few 800 ft
Dew Point 64 °F
Humidity 100%
Rainfall 1.04 in
Snow Depth Not available.
UV 0 out of 12
Pollen 4.70 out of 12
Air Quality Not available.
Flu Activity Sporadic
METAR KJDD 260455Z AUTO 00000KT 5SM BR FEW008 18/18 A2991 RMK AO2

More Conditions Fewer Conditions

Nowcast | as of 10:43 PM CDT on May 25, 2015

At 1040 PM...Shreveport National Weather Service Doppler radar showed a squall line of thunderstorms that extended from Crossett Arkansas...to Monroe...to Colfax...to Lake Charles. The back edge of rainfall behind the line extends from De Queen...to Texarkana...to Marshall and Lufkin. Expect rain to slowly diminish overnight into early Tuesday morning. Flash flooding may still also be ongoing in low areas due to runoff. Also when driving...turn around...don't drown when you see a flooded roadway.

×

10-Day Weather Forecast

Almanac

Astronomy

May. 26, 2015 Rise Set
Actual Time
Civil Twilight
Nautical Twilight
Astronomical Twilight
Moon
Length of Visible Light
Length of Day
Tomorrow will be .
, % of the Moon is Illuminated

Today's Extremes

State Highs State Lows

Community

WunderPhotos

Upload Photos

1,824,284 photos uploaded!

WunderBlogs® & News

Nearby

Air Quality

  Air Quality AQ Index Pollutant
Not available.

Snow Depth

Station Depth Elevation

Earthquake Activity

City Distance Mag. Time & Date
Minimum magnitude displayed is 2.5.

Coastal Water Temperatures

Place Temperature

Stations

Nearby Weather Stations

Station Location Temp. Windchill Dew Point Humidity Wind Precip. Elev Updated Type